Time;durP1;ratioP1;P1;durP2;ratioP2;P2;SDS_P1;SDS_P2;PMS_P1;PMS_P2;Temp;Humidity;BMP_temperature;BMP_pressure;BME280_temperature;BME280_humidity;BME280_pressure;Samples;Min_cycle;Max_cycle;Signal;HPM_P1;HPM_P2
2021/03/10 00:00:33;;;;;;;52.10;18.13;;;;;;;;;;5035225;28;20123;-60
2021/03/10 00:03:00;;;;;;;40.35;17.25;;;;;;;;;;5034973;28;20035;-61
2021/03/10 00:05:28;;;;;;;48.03;18.30;;;;;;;;;;5049196;28;21972;-62
2021/03/10 00:07:59;;;;;;;42.05;17.20;;;;;;;;;;5050452;28;21137;-61
2021/03/10 00:10:25;;;;;;;43.95;17.50;;;;;;;;;;5034485;28;20662;-61
2021/03/10 00:12:53;;;;;;;43.85;17.90;;;;;;;;;;5017366;28;20039;-61
2021/03/10 00:15:22;;;;;;;37.95;14.80;;;;;;;;;;5035415;28;20051;-61
2021/03/10 00:17:47;;;;;;;46.03;17.67;;;;;;;;;;5005515;28;20480;-62
2021/03/10 00:20:14;;;;;;;40.13;16.25;;;;;;;;;;5033431;28;20039;-61
2021/03/10 00:22:44;;;;;;;43.22;17.33;;;;;;;;;;5050204;28;20413;-61
2021/03/10 00:25:12;;;;;;;39.03;16.23;;;;;;;;;;4993962;28;20476;-61
2021/03/10 00:27:41;;;;;;;41.85;17.77;;;;;;;;;;5015422;28;20037;-61
2021/03/10 00:30:09;;;;;;;44.85;17.35;;;;;;;;;;5025900;28;20079;-61
2021/03/10 00:32:38;;;;;;;38.85;17.45;;;;;;;;;;5051743;28;20026;-61
2021/03/10 00:35:07;;;;;;;39.63;16.95;;;;;;;;;;5031817;28;20452;-63
2021/03/10 00:37:38;;;;;;;44.67;18.70;;;;;;;;;;5051253;28;20024;-62
2021/03/10 00:40:06;;;;;;;46.03;18.17;;;;;;;;;;5050669;28;20064;-62
2021/03/10 00:42:37;;;;;;;42.50;16.77;;;;;;;;;;5031986;28;20570;-62
2021/03/10 00:45:05;;;;;;;45.80;18.08;;;;;;;;;;5031056;28;20060;-61
2021/03/10 00:47:33;;;;;;;39.65;17.75;;;;;;;;;;5049091;28;20122;-61
2021/03/10 00:50:03;;;;;;;47.65;17.55;;;;;;;;;;5047377;28;20396;-60
2021/03/10 00:52:32;;;;;;;37.47;18.02;;;;;;;;;;5048013;28;20036;-60
2021/03/10 00:54:57;;;;;;;44.20;18.88;;;;;;;;;;5039819;28;20028;-62
2021/03/10 00:57:23;;;;;;;42.13;17.70;;;;;;;;;;5030192;28;20672;-62
2021/03/10 00:59:51;;;;;;;43.10;17.30;;;;;;;;;;5048609;28;21344;-62
2021/03/10 01:02:19;;;;;;;45.72;18.48;;;;;;;;;;5030674;28;20032;-61
2021/03/10 01:04:49;;;;;;;44.20;16.50;;;;;;;;;;5032171;28;20028;-61
2021/03/10 01:07:17;;;;;;;47.25;19.27;;;;;;;;;;5019200;28;20174;-61
2021/03/10 01:09:48;;;;;;;41.25;16.50;;;;;;;;;;5032882;28;20027;-61
2021/03/10 01:12:16;;;;;;;44.35;17.20;;;;;;;;;;5024822;28;20040;-62
2021/03/10 01:14:45;;;;;;;41.17;16.60;;;;;;;;;;5037022;28;20037;-62
2021/03/10 01:17:11;;;;;;;40.92;17.23;;;;;;;;;;5045921;28;20071;-61
2021/03/10 01:19:37;;;;;;;38.13;17.13;;;;;;;;;;5045547;28;20071;-62
2021/03/10 01:22:05;;;;;;;37.42;16.00;;;;;;;;;;5025925;28;20586;-62
2021/03/10 01:24:33;;;;;;;38.22;17.05;;;;;;;;;;5027034;28;20071;-61
2021/03/10 01:27:06;;;;;;;33.45;15.82;;;;;;;;;;5046582;28;20040;-61
2021/03/10 01:29:34;;;;;;;40.90;16.98;;;;;;;;;;5009187;28;20036;-61
2021/03/10 01:32:04;;;;;;;34.90;15.63;;;;;;;;;;5047974;28;20036;-61
2021/03/10 01:34:35;;;;;;;37.80;16.50;;;;;;;;;;5030212;28;20962;-62
2021/03/10 01:37:00;;;;;;;38.00;17.00;;;;;;;;;;5034922;28;20060;-61
2021/03/10 01:39:25;;;;;;;35.58;16.02;;;;;;;;;;5015685;28;20147;-62
2021/03/10 01:41:53;;;;;;;36.15;15.75;;;;;;;;;;5027725;28;20032;-62
2021/03/10 01:44:18;;;;;;;35.80;15.40;;;;;;;;;;5023863;28;20036;-61
2021/03/10 01:46:44;;;;;;;32.70;14.30;;;;;;;;;;5029706;28;20029;-61
2021/03/10 01:49:10;;;;;;;37.75;16.23;;;;;;;;;;5005235;28;20132;-62
2021/03/10 01:51:36;;;;;;;39.38;16.42;;;;;;;;;;5031841;28;20028;-61
2021/03/10 01:54:06;;;;;;;30.42;14.23;;;;;;;;;;5022660;28;20185;-61
2021/03/10 01:56:36;;;;;;;31.75;14.57;;;;;;;;;;4996896;28;20040;-63
2021/03/10 01:59:04;;;;;;;35.30;15.25;;;;;;;;;;5046782;28;20021;-61
2021/03/10 02:01:32;;;;;;;37.20;15.48;;;;;;;;;;5032635;28;20099;-62
2021/03/10 02:04:00;;;;;;;33.97;14.38;;;;;;;;;;5049255;28;20468;-61
2021/03/10 02:06:33;;;;;;;30.67;14.32;;;;;;;;;;5008801;28;20142;-61
2021/03/10 02:09:04;;;;;;;30.73;14.73;;;;;;;;;;5048197;28;20128;-61
2021/03/10 02:11:33;;;;;;;30.42;13.38;;;;;;;;;;5032101;28;20025;-61
2021/03/10 02:14:16;;;;;;;29.10;12.82;;;;;;;;;;5033076;28;20070;-63
2021/03/10 02:16:57;;;;;;;26.73;13.30;;;;;;;;;;5023798;28;20040;-61
2021/03/10 02:19:45;;;;;;;30.95;14.55;;;;;;;;;;5047527;28;20029;-60
2021/03/10 02:22:10;;;;;;;27.77;13.35;;;;;;;;;;5011696;28;20154;-62
2021/03/10 02:24:54;;;;;;;28.70;13.90;;;;;;;;;;5050163;28;20024;-61
2021/03/10 02:27:33;;;;;;;27.88;13.20;;;;;;;;;;5046832;28;20063;-61
2021/03/10 02:30:00;;;;;;;26.58;12.00;;;;;;;;;;5030345;28;20032;-61
2021/03/10 02:32:29;;;;;;;28.02;14.40;;;;;;;;;;5024316;28;20037;-60
2021/03/10 02:34:57;;;;;;;29.40;14.57;;;;;;;;;;5043583;28;20484;-61
2021/03/10 02:37:29;;;;;;;27.83;14.18;;;;;;;;;;5030826;28;20117;-60
2021/03/10 02:39:55;;;;;;;28.15;13.15;;;;;;;;;;5030709;28;20032;-61
2021/03/10 02:42:27;;;;;;;33.63;14.30;;;;;;;;;;5043743;28;20783;-61
2021/03/10 02:44:54;;;;;;;31.05;14.50;;;;;;;;;;5044858;28;20555;-61
2021/03/10 02:47:24;;;;;;;28.77;13.05;;;;;;;;;;5049491;28;20155;-62
2021/03/10 02:49:54;;;;;;;30.58;13.82;;;;;;;;;;5031482;28;20043;-62
2021/03/10 02:52:22;;;;;;;31.58;13.48;;;;;;;;;;5046144;28;20066;-61
2021/03/10 02:54:50;;;;;;;33.90;14.15;;;;;;;;;;5049289;28;20033;-62
2021/03/10 02:57:15;;;;;;;30.60;14.18;;;;;;;;;;5045309;28;20597;-61
2021/03/10 02:59:43;;;;;;;33.55;14.07;;;;;;;;;;5047191;28;20024;-61
2021/03/10 03:02:10;;;;;;;30.80;13.48;;;;;;;;;;5029379;28;20032;-62
2021/03/10 03:04:36;;;;;;;34.97;13.32;;;;;;;;;;5048415;28;20025;-62
2021/03/10 03:07:06;;;;;;;34.15;14.27;;;;;;;;;;5032145;28;20141;-62
2021/03/10 03:09:34;;;;;;;25.23;11.88;;;;;;;;;;5016076;28;20056;-62
2021/03/10 03:12:03;;;;;;;33.30;13.23;;;;;;;;;;5033596;28;20104;-62
2021/03/10 03:14:34;;;;;;;36.03;14.70;;;;;;;;;;5048054;28;20967;-60
2021/03/10 03:17:04;;;;;;;34.78;13.93;;;;;;;;;;5042857;28;20105;-62
2021/03/10 03:19:32;;;;;;;35.10;14.32;;;;;;;;;;5046592;28;20056;-61
2021/03/10 03:22:00;;;;;;;28.05;13.80;;;;;;;;;;5019972;28;20116;-60
2021/03/10 03:24:27;;;;;;;28.45;12.68;;;;;;;;;;5030446;28;20025;-61
2021/03/10 03:26:55;;;;;;;40.20;14.73;;;;;;;;;;5045279;28;20028;-61
2021/03/10 03:29:24;;;;;;;33.10;13.80;;;;;;;;;;5037021;28;20037;-62
2021/03/10 03:31:50;;;;;;;30.50;13.10;;;;;;;;;;5048300;28;20029;-61
2021/03/10 03:34:16;;;;;;;43.50;16.33;;;;;;;;;;5030792;28;22065;-61
2021/03/10 03:36:42;;;;;;;40.30;15.23;;;;;;;;;;5032304;28;20515;-62
2021/03/10 03:39:08;;;;;;;37.63;14.60;;;;;;;;;;5035498;28;20047;-61
2021/03/10 03:41:33;;;;;;;37.13;13.65;;;;;;;;;;5031064;28;20028;-60
2021/03/10 03:44:00;;;;;;;45.25;15.32;;;;;;;;;;5028891;28;20575;-62
2021/03/10 03:46:28;;;;;;;34.20;13.45;;;;;;;;;;5051836;28;20033;-62
2021/03/10 03:49:03;;;;;;;39.55;14.65;;;;;;;;;;5053416;28;20162;-62
2021/03/10 03:51:29;;;;;;;;;;;;;;;;;;5042811;28;20249;-60
2021/03/10 03:54:04;;;;;;;35.40;13.00;;;;;;;;;;5048974;28;19916;-61
2021/03/10 03:56:29;;;;;;;39.20;13.75;;;;;;;;;;5052513;28;20115;-61
2021/03/10 03:58:58;;;;;;;35.63;13.23;;;;;;;;;;5011033;28;20047;-61
2021/03/10 04:01:26;;;;;;;42.53;14.23;;;;;;;;;;5050194;28;21914;-61
2021/03/10 04:03:54;;;;;;;43.58;15.02;;;;;;;;;;5034215;28;20032;-62
2021/03/10 04:06:22;;;;;;;42.40;14.77;;;;;;;;;;5017102;28;20360;-63
2021/03/10 04:08:48;;;;;;;51.60;15.52;;;;;;;;;;5026678;28;20036;-61
2021/03/10 04:11:14;;;;;;;41.67;14.35;;;;;;;;;;5052429;28;20047;-61
2021/03/10 04:13:40;;;;;;;41.33;15.38;;;;;;;;;;5035831;28;20063;-61
2021/03/10 04:16:05;;;;;;;42.20;14.07;;;;;;;;;;5027522;28;20058;-62
2021/03/10 04:18:31;;;;;;;32.78;14.05;;;;;;;;;;5032637;28;20151;-61
2021/03/10 04:20:57;;;;;;;38.97;13.35;;;;;;;;;;5050819;28;20025;-61
2021/03/10 04:23:23;;;;;;;40.35;13.65;;;;;;;;;;5047125;28;20068;-62
2021/03/10 04:25:48;;;;;;;33.55;12.60;;;;;;;;;;5050608;28;20029;-61
2021/03/10 04:28:14;;;;;;;37.95;12.32;;;;;;;;;;5026293;28;20044;-61
2021/03/10 04:30:42;;;;;;;39.70;14.35;;;;;;;;;;4998440;28;20033;-61
2021/03/10 04:33:07;;;;;;;38.35;13.43;;;;;;;;;;5046366;28;20044;-61
2021/03/10 04:35:33;;;;;;;42.22;12.55;;;;;;;;;;5048694;28;20059;-61
2021/03/10 04:37:58;;;;;;;38.40;13.35;;;;;;;;;;5052838;28;20131;-61
2021/03/10 04:40:24;;;;;;;37.40;13.88;;;;;;;;;;5050325;28;20048;-61
2021/03/10 04:42:50;;;;;;;42.72;13.60;;;;;;;;;;5034832;28;20190;-61
2021/03/10 04:45:16;;;;;;;39.95;13.93;;;;;;;;;;4995328;28;20051;-61
2021/03/10 04:47:42;;;;;;;42.15;14.48;;;;;;;;;;5050804;28;20029;-65
2021/03/10 04:50:08;;;;;;;45.83;15.82;;;;;;;;;;5043564;28;20028;-61
2021/03/10 04:52:33;;;;;;;50.05;14.45;;;;;;;;;;5051595;28;20029;-61
2021/03/10 04:55:00;;;;;;;48.85;16.13;;;;;;;;;;5051900;28;21922;-61
2021/03/10 04:57:27;;;;;;;40.83;14.15;;;;;;;;;;5025939;28;20044;-61
2021/03/10 04:59:53;;;;;;;60.53;15.90;;;;;;;;;;5032938;28;20036;-62
2021/03/10 05:02:20;;;;;;;56.05;16.45;;;;;;;;;;5009610;28;20047;-61
2021/03/10 05:04:45;;;;;;;57.70;17.60;;;;;;;;;;5036098;28;20119;-61
2021/03/10 05:07:11;;;;;;;51.70;16.25;;;;;;;;;;5042142;28;20493;-62
2021/03/10 05:09:39;;;;;;;52.72;15.57;;;;;;;;;;5037387;28;20043;-61
2021/03/10 05:12:07;;;;;;;55.88;16.63;;;;;;;;;;5051566;28;20032;-62
2021/03/10 05:14:33;;;;;;;57.65;19.13;;;;;;;;;;5018736;28;21796;-61
2021/03/10 05:16:59;;;;;;;56.75;16.27;;;;;;;;;;4997616;28;20044;-63
2021/03/10 05:19:25;;;;;;;51.10;16.50;;;;;;;;;;5013102;28;20122;-61
2021/03/10 05:21:51;;;;;;;58.65;17.17;;;;;;;;;;5046090;28;20417;-62
2021/03/10 05:24:16;;;;;;;54.63;18.45;;;;;;;;;;5033800;28;20070;-61
2021/03/10 05:26:42;;;;;;;54.80;18.00;;;;;;;;;;5049973;28;20653;-61
2021/03/10 05:29:07;;;;;;;54.92;17.83;;;;;;;;;;5051082;28;21061;-61
2021/03/10 05:31:33;;;;;;;58.83;17.25;;;;;;;;;;5008730;28;20380;-62
2021/03/10 05:33:59;;;;;;;56.05;16.70;;;;;;;;;;5031987;28;20060;-62
2021/03/10 05:36:24;;;;;;;68.68;20.25;;;;;;;;;;5022751;28;20032;-62
2021/03/10 05:38:51;;;;;;;64.88;18.30;;;;;;;;;;5046386;28;20495;-61
2021/03/10 05:41:16;;;;;;;61.58;18.67;;;;;;;;;;5026250;28;20028;-61
2021/03/10 05:43:43;;;;;;;57.10;19.08;;;;;;;;;;5051095;28;20063;-61
2021/03/10 05:46:12;;;;;;;68.05;20.02;;;;;;;;;;5049223;28;20028;-61
2021/03/10 05:48:41;;;;;;;62.67;17.65;;;;;;;;;;5029333;28;20622;-61
2021/03/10 05:51:07;;;;;;;61.95;17.20;;;;;;;;;;5049303;28;20043;-60
2021/03/10 05:53:35;;;;;;;53.60;19.17;;;;;;;;;;5050173;28;20036;-62
2021/03/10 05:56:01;;;;;;;68.70;21.33;;;;;;;;;;5048237;28;20081;-62
2021/03/10 05:58:30;;;;;;;61.40;18.33;;;;;;;;;;5049482;28;20039;-61
2021/03/10 06:00:56;;;;;;;52.80;17.63;;;;;;;;;;5049391;28;20191;-62
2021/03/10 06:03:22;;;;;;;73.15;22.30;;;;;;;;;;5045735;28;20123;-62
2021/03/10 06:05:57;;;;;;;63.35;19.20;;;;;;;;;;5015606;28;20036;-62
2021/03/10 06:08:25;;;;;;;56.40;18.55;;;;;;;;;;5033920;28;20055;-61
2021/03/10 06:10:51;;;;;;;47.80;16.15;;;;;;;;;;5030680;28;20786;-62
2021/03/10 06:13:35;;;;;;;50.50;17.65;;;;;;;;;;5032800;28;20041;-61
2021/03/10 06:16:01;;;;;;;45.63;17.10;;;;;;;;;;5038829;28;20036;-61
2021/03/10 06:18:34;;;;;;;46.80;18.23;;;;;;;;;;5031866;28;20021;-62
2021/03/10 06:21:06;;;;;;;40.95;15.88;;;;;;;;;;5031946;28;20049;-61
2021/03/10 06:23:37;;;;;;;39.20;17.58;;;;;;;;;;5028584;28;20083;-62
2021/03/10 06:26:03;;;;;;;51.50;18.70;;;;;;;;;;5036155;28;20028;-63
2021/03/10 06:28:36;;;;;;;45.47;17.52;;;;;;;;;;5016743;28;20044;-63
2021/03/10 06:31:01;;;;;;;45.83;16.85;;;;;;;;;;5031822;28;20037;-61
2021/03/10 06:33:29;;;;;;;34.72;16.70;;;;;;;;;;5024999;28;21071;-63
2021/03/10 06:35:55;;;;;;;43.05;17.90;;;;;;;;;;5030314;28;20120;-63
2021/03/10 06:38:21;;;;;;;32.33;14.57;;;;;;;;;;5038152;28;20562;-61
2021/03/10 06:40:56;;;;;;;41.05;15.95;;;;;;;;;;4990324;28;22183;-62
2021/03/10 06:43:39;;;;;;;34.17;14.32;;;;;;;;;;5031903;28;21132;-62
2021/03/10 06:46:15;;;;;;;33.60;15.02;;;;;;;;;;5046250;28;20047;-62
2021/03/10 06:48:59;;;;;;;35.50;15.75;;;;;;;;;;5029081;28;20061;-62
2021/03/10 06:51:28;;;;;;;34.90;14.98;;;;;;;;;;5047703;28;20210;-61
2021/03/10 06:53:54;;;;;;;36.30;15.15;;;;;;;;;;5029925;28;20062;-60
2021/03/10 06:56:21;;;;;;;30.30;13.73;;;;;;;;;;5024410;28;20050;-61
2021/03/10 06:58:55;;;;;;;34.00;13.48;;;;;;;;;;5047140;28;20028;-61
2021/03/10 07:01:21;;;;;;;35.78;15.15;;;;;;;;;;5031029;28;20055;-60
2021/03/10 07:03:47;;;;;;;30.88;14.20;;;;;;;;;;5046361;28;20120;-60
2021/03/10 07:06:15;;;;;;;29.60;13.68;;;;;;;;;;5022326;28;20180;-61
2021/03/10 07:08:44;;;;;;;31.85;14.25;;;;;;;;;;5029176;28;20978;-60
2021/03/10 07:11:10;;;;;;;31.33;13.70;;;;;;;;;;5046431;28;20912;-61
2021/03/10 07:13:41;;;;;;;28.42;13.70;;;;;;;;;;5050655;28;20139;-60
2021/03/10 07:16:09;;;;;;;31.20;14.30;;;;;;;;;;5019215;28;20036;-62
2021/03/10 07:18:38;;;;;;;29.67;14.27;;;;;;;;;;5053158;28;20036;-61
2021/03/10 07:21:08;;;;;;;30.75;13.98;;;;;;;;;;5032282;28;20043;-62
2021/03/10 07:23:39;;;;;;;31.02;16.33;;;;;;;;;;5007066;28;20061;-60
2021/03/10 07:26:05;;;;;;;29.83;14.65;;;;;;;;;;5034622;28;20052;-60
2021/03/10 07:28:36;;;;;;;24.45;11.95;;;;;;;;;;5023204;28;20048;-60
2021/03/10 07:31:04;;;;;;;24.55;12.38;;;;;;;;;;5051381;28;20422;-61
2021/03/10 07:33:32;;;;;;;26.77;13.02;;;;;;;;;;5030875;28;20622;-60
2021/03/10 07:36:03;;;;;;;25.73;12.93;;;;;;;;;;5027508;28;20043;-59
2021/03/10 07:38:38;;;;;;;22.92;12.88;;;;;;;;;;5034190;28;20055;-58
2021/03/10 07:41:05;;;;;;;26.05;13.52;;;;;;;;;;5048591;28;20113;-58
2021/03/10 07:43:38;;;;;;;25.40;11.63;;;;;;;;;;5027636;28;20029;-62
2021/03/10 07:46:18;;;;;;;25.77;13.27;;;;;;;;;;5052058;28;20228;-64
2021/03/10 07:48:43;;;;;;;27.08;13.60;;;;;;;;;;5026531;28;20044;-59
2021/03/10 07:51:09;;;;;;;24.70;12.07;;;;;;;;;;5034196;28;20059;-62
2021/03/10 07:53:37;;;;;;;24.02;12.73;;;;;;;;;;5034923;28;20123;-61
2021/03/10 07:56:08;;;;;;;25.92;13.63;;;;;;;;;;5033390;28;20391;-61
2021/03/10 07:58:34;;;;;;;26.40;11.63;;;;;;;;;;5042791;28;20399;-60
2021/03/10 08:01:00;;;;;;;24.50;12.80;;;;;;;;;;4998934;28;20041;-62
2021/03/10 08:03:34;;;;;;;27.52;12.95;;;;;;;;;;5034232;28;20029;-61
2021/03/10 08:06:03;;;;;;;34.22;13.60;;;;;;;;;;5051294;28;20033;-62
2021/03/10 08:08:41;;;;;;;25.88;11.75;;;;;;;;;;5031052;28;20039;-59
2021/03/10 08:11:08;;;;;;;23.17;11.88;;;;;;;;;;5050460;28;20119;-60
2021/03/10 08:13:33;;;;;;;23.98;12.23;;;;;;;;;;5033149;28;20112;-61
2021/03/10 08:16:03;;;;;;;21.55;11.43;;;;;;;;;;5040974;28;20093;-61
2021/03/10 08:18:32;;;;;;;21.85;12.07;;;;;;;;;;5033151;28;20067;-62
2021/03/10 08:21:08;;;;;;;29.80;12.32;;;;;;;;;;5030228;28;20665;-61
2021/03/10 08:23:36;;;;;;;27.17;11.50;;;;;;;;;;5049717;28;20035;-60
2021/03/10 08:26:03;;;;;;;26.02;12.75;;;;;;;;;;5032248;28;20039;-61
2021/03/10 08:28:32;;;;;;;20.38;10.68;;;;;;;;;;5043676;28;20086;-60
2021/03/10 08:31:06;;;;;;;23.05;11.13;;;;;;;;;;5033962;28;20134;-59
2021/03/10 08:33:43;;;;;;;20.92;10.75;;;;;;;;;;5041086;28;20051;-60
2021/03/10 08:36:13;;;;;;;22.52;11.45;;;;;;;;;;5046531;28;21226;-62
2021/03/10 08:38:45;;;;;;;26.77;11.15;;;;;;;;;;5048408;28;20040;-62
2021/03/10 08:41:14;;;;;;;23.20;11.32;;;;;;;;;;5015968;28;20063;-60
2021/03/10 08:43:40;;;;;;;19.02;10.88;;;;;;;;;;5032806;28;20175;-59
2021/03/10 08:46:06;;;;;;;23.08;12.32;;;;;;;;;;5025518;28;20593;-62
2021/03/10 08:48:34;;;;;;;23.05;11.20;;;;;;;;;;5006769;28;20028;-61
2021/03/10 08:51:05;;;;;;;26.17;11.45;;;;;;;;;;5050636;28;20170;-61
2021/03/10 08:53:31;;;;;;;20.20;10.82;;;;;;;;;;5009453;28;20041;-59
2021/03/10 08:56:07;;;;;;;21.58;11.20;;;;;;;;;;5041832;28;20158;-62
2021/03/10 08:58:35;;;;;;;23.13;12.07;;;;;;;;;;5028930;28;20094;-61
2021/03/10 09:01:00;;;;;;;27.40;12.63;;;;;;;;;;5009686;28;20037;-62
2021/03/10 09:03:27;;;;;;;21.73;11.10;;;;;;;;;;5021808;28;20090;-62
2021/03/10 09:05:59;;;;;;;26.02;11.65;;;;;;;;;;5046803;28;20075;-61
2021/03/10 09:08:29;;;;;;;25.27;11.85;;;;;;;;;;5046390;28;20037;-61
2021/03/10 09:10:57;;;;;;;22.80;11.27;;;;;;;;;;5015659;28;22068;-60
2021/03/10 09:13:22;;;;;;;23.05;11.90;;;;;;;;;;5023307;28;20118;-62
2021/03/10 09:15:49;;;;;;;21.17;10.95;;;;;;;;;;5049736;28;20677;-61
2021/03/10 09:18:19;;;;;;;21.75;11.63;;;;;;;;;;5011727;28;20024;-60
2021/03/10 09:20:48;;;;;;;27.33;13.73;;;;;;;;;;5039911;28;20040;-59
2021/03/10 09:23:26;;;;;;;25.38;12.35;;;;;;;;;;5047267;28;20040;-58
2021/03/10 09:25:53;;;;;;;23.42;11.70;;;;;;;;;;5039960;28;20615;-61
2021/03/10 09:28:19;;;;;;;21.85;11.52;;;;;;;;;;5046769;28;20044;-62
2021/03/10 09:30:47;;;;;;;21.48;11.98;;;;;;;;;;5030367;28;20066;-61
2021/03/10 09:33:18;;;;;;;22.08;12.23;;;;;;;;;;5049684;28;20038;-60
2021/03/10 09:35:52;;;;;;;28.00;13.27;;;;;;;;;;5021174;28;20040;-60
2021/03/10 09:38:18;;;;;;;24.67;11.30;;;;;;;;;;5018084;28;20032;-60
2021/03/10 09:40:53;;;;;;;26.08;13.25;;;;;;;;;;5013352;28;20110;-61
2021/03/10 09:43:22;;;;;;;26.00;13.63;;;;;;;;;;5033327;28;20020;-62
2021/03/10 09:45:48;;;;;;;25.05;13.23;;;;;;;;;;5048456;28;20035;-59
2021/03/10 09:48:31;;;;;;;25.48;13.75;;;;;;;;;;5035652;28;20129;-61
2021/03/10 09:51:02;;;;;;;25.75;13.35;;;;;;;;;;5015162;28;20090;-61
2021/03/10 09:53:28;;;;;;;24.75;13.13;;;;;;;;;;5022339;28;20037;-61
2021/03/10 09:56:08;;;;;;;25.95;13.13;;;;;;;;;;4998363;28;20036;-61
2021/03/10 09:58:47;;;;;;;28.75;13.90;;;;;;;;;;5022279;28;20060;-62
2021/03/10 10:01:15;;;;;;;25.63;13.20;;;;;;;;;;5012518;28;20032;-60
2021/03/10 10:03:43;;;;;;;25.05;13.32;;;;;;;;;;5047433;28;20177;-61
2021/03/10 10:06:14;;;;;;;28.08;14.70;;;;;;;;;;5001196;28;89283;-61
2021/03/10 10:08:42;;;;;;;28.05;13.35;;;;;;;;;;4974632;28;20052;-59
2021/03/10 10:11:10;;;;;;;30.75;14.43;;;;;;;;;;4986135;28;20056;-60
2021/03/10 10:13:41;;;;;;;28.77;14.10;;;;;;;;;;5014555;28;20049;-60
2021/03/10 10:16:07;;;;;;;34.13;15.40;;;;;;;;;;4999078;28;20044;-61
2021/03/10 10:18:32;;;;;;;30.98;14.68;;;;;;;;;;5000640;28;20025;-61
2021/03/10 10:21:00;;;;;;;30.48;14.55;;;;;;;;;;5013910;28;20045;-61
2021/03/10 10:23:25;;;;;;;26.15;14.18;;;;;;;;;;5012788;28;20033;-60
2021/03/10 10:25:51;;;;;;;31.38;14.65;;;;;;;;;;4998146;28;20095;-60
2021/03/10 10:28:19;;;;;;;28.45;14.38;;;;;;;;;;4998874;28;20055;-62
2021/03/10 10:30:47;;;;;;;26.27;14.65;;;;;;;;;;4998448;28;20044;-61
2021/03/10 10:33:13;;;;;;;29.13;15.13;;;;;;;;;;4999127;28;20033;-62
2021/03/10 10:35:38;;;;;;;27.38;14.43;;;;;;;;;;5003606;28;20033;-62
2021/03/10 10:38:05;;;;;;;28.60;14.50;;;;;;;;;;4999315;28;20727;-62
2021/03/10 10:40:36;;;;;;;32.13;15.25;;;;;;;;;;5001201;28;20034;-62
2021/03/10 10:43:03;;;;;;;30.35;15.18;;;;;;;;;;5001928;28;20057;-63
2021/03/10 10:45:30;;;;;;;33.63;15.93;;;;;;;;;;5002218;28;20144;-61
2021/03/10 10:47:55;;;;;;;31.48;15.50;;;;;;;;;;5002806;28;20527;-64
2021/03/10 10:50:23;;;;;;;32.15;15.25;;;;;;;;;;5004891;28;20041;-62
2021/03/10 10:52:52;;;;;;;30.45;14.52;;;;;;;;;;5005994;28;20033;-62
2021/03/10 10:55:19;;;;;;;31.50;15.20;;;;;;;;;;5003303;28;20036;-62
2021/03/10 10:57:49;;;;;;;31.35;15.10;;;;;;;;;;5001090;28;20038;-62
2021/03/10 11:00:19;;;;;;;31.38;15.60;;;;;;;;;;5007582;28;20041;-61
2021/03/10 11:02:45;;;;;;;27.95;14.35;;;;;;;;;;5004802;28;20668;-63
2021/03/10 11:05:10;;;;;;;38.10;15.77;;;;;;;;;;5016366;28;20033;-61
2021/03/10 11:07:38;;;;;;;31.08;14.15;;;;;;;;;;5003241;28;20720;-62
2021/03/10 11:10:08;;;;;;;31.77;14.38;;;;;;;;;;5003703;28;20045;-62
2021/03/10 11:12:33;;;;;;;31.73;15.10;;;;;;;;;;5019015;28;20033;-62
2021/03/10 11:14:58;;;;;;;31.38;14.63;;;;;;;;;;5004307;28;20040;-62
2021/03/10 11:17:24;;;;;;;26.35;13.45;;;;;;;;;;5018838;28;20738;-61
2021/03/10 11:19:51;;;;;;;29.13;14.82;;;;;;;;;;5016474;28;20061;-60
2021/03/10 11:22:19;;;;;;;29.83;14.50;;;;;;;;;;5008889;28;20121;-60
2021/03/10 11:24:47;;;;;;;29.48;14.55;;;;;;;;;;5003909;28;20079;-60
2021/03/10 11:27:17;;;;;;;31.65;15.63;;;;;;;;;;5014146;28;20037;-59
2021/03/10 11:29:46;;;;;;;30.77;15.38;;;;;;;;;;5016194;28;20048;-61
2021/03/10 11:32:17;;;;;;;31.20;15.60;;;;;;;;;;4998946;28;20033;-60
2021/03/10 11:34:43;;;;;;;34.67;15.93;;;;;;;;;;5004924;28;20076;-61
2021/03/10 11:37:11;;;;;;;30.58;15.45;;;;;;;;;;5001477;28;20049;-59
2021/03/10 11:39:39;;;;;;;26.05;13.57;;;;;;;;;;4997694;28;20087;-61
2021/03/10 11:42:09;;;;;;;33.20;15.57;;;;;;;;;;4988558;28;20167;-62
2021/03/10 11:44:35;;;;;;;33.13;16.25;;;;;;;;;;4999277;28;20741;-62
2021/03/10 11:47:03;;;;;;;29.10;15.52;;;;;;;;;;5001923;28;20083;-61
2021/03/10 11:49:28;;;;;;;29.30;14.73;;;;;;;;;;5017769;28;20053;-60
2021/03/10 11:51:56;;;;;;;31.10;16.10;;;;;;;;;;5001900;28;20068;-61
2021/03/10 11:54:23;;;;;;;37.78;16.25;;;;;;;;;;5001942;28;20961;-63
2021/03/10 11:56:49;;;;;;;33.70;15.27;;;;;;;;;;5003429;28;20068;-60
2021/03/10 11:59:15;;;;;;;32.63;15.00;;;;;;;;;;5017907;28;20957;-61
2021/03/10 12:01:40;;;;;;;34.58;16.65;;;;;;;;;;4999858;28;20037;-61
2021/03/10 12:04:06;;;;;;;30.38;14.15;;;;;;;;;;5018379;28;20037;-60
2021/03/10 12:06:34;;;;;;;32.15;16.05;;;;;;;;;;4990801;28;20037;-62
2021/03/10 12:08:59;;;;;;;33.47;15.90;;;;;;;;;;5003289;28;20030;-61
2021/03/10 12:11:27;;;;;;;34.75;16.02;;;;;;;;;;5000935;28;20041;-60
2021/03/10 12:13:52;;;;;;;32.45;15.75;;;;;;;;;;5002503;28;20769;-61
2021/03/10 12:16:18;;;;;;;31.83;15.45;;;;;;;;;;5001045;28;20071;-62
2021/03/10 12:18:43;;;;;;;33.67;16.35;;;;;;;;;;5016678;28;20647;-61
2021/03/10 12:21:09;;;;;;;33.13;16.40;;;;;;;;;;4999620;28;20033;-62
2021/03/10 12:23:37;;;;;;;40.65;17.95;;;;;;;;;;5016664;28;20127;-60
2021/03/10 12:26:03;;;;;;;32.53;16.50;;;;;;;;;;5000616;28;20033;-63
2021/03/10 12:28:31;;;;;;;33.05;16.92;;;;;;;;;;5017248;28;22138;-62
2021/03/10 12:30:58;;;;;;;37.85;17.65;;;;;;;;;;5001807;28;20920;-63
2021/03/10 12:33:24;;;;;;;34.13;17.50;;;;;;;;;;5016088;28;20046;-62
2021/03/10 12:35:49;;;;;;;45.95;17.08;;;;;;;;;;5017293;28;20571;-63
2021/03/10 12:38:15;;;;;;;39.58;16.48;;;;;;;;;;5005637;28;20137;-61
2021/03/10 12:40:41;;;;;;;33.35;15.70;;;;;;;;;;5001941;28;20033;-60
2021/03/10 12:43:08;;;;;;;33.28;16.17;;;;;;;;;;5002805;28;20103;-61
2021/03/10 12:45:34;;;;;;;29.50;15.20;;;;;;;;;;5000700;28;20743;-61
2021/03/10 12:48:03;;;;;;;32.15;15.80;;;;;;;;;;4986540;28;20025;-60
2021/03/10 12:50:28;;;;;;;32.25;15.23;;;;;;;;;;4998253;28;20040;-62
2021/03/10 12:52:56;;;;;;;32.58;15.73;;;;;;;;;;4972241;28;20041;-61
2021/03/10 12:55:22;;;;;;;32.35;16.85;;;;;;;;;;5002453;28;20860;-61
2021/03/10 12:57:47;;;;;;;32.17;17.08;;;;;;;;;;4999463;28;20033;-61
2021/03/10 13:00:14;;;;;;;35.50;16.20;;;;;;;;;;5016296;28;20033;-64
2021/03/10 13:02:40;;;;;;;26.50;14.77;;;;;;;;;;4987776;28;20037;-61
2021/03/10 13:05:08;;;;;;;36.95;15.63;;;;;;;;;;4999761;28;20893;-61
2021/03/10 13:07:34;;;;;;;34.40;16.88;;;;;;;;;;5000160;28;20963;-61
2021/03/10 13:10:00;;;;;;;37.33;16.50;;;;;;;;;;4997722;28;20457;-60
2021/03/10 13:12:26;;;;;;;32.22;16.13;;;;;;;;;;5002535;28;20034;-61
2021/03/10 13:14:53;;;;;;;34.28;16.20;;;;;;;;;;4999621;28;20033;-59
2021/03/10 13:17:19;;;;;;;31.30;15.48;;;;;;;;;;5015896;28;20071;-60
2021/03/10 13:19:45;;;;;;;34.92;16.88;;;;;;;;;;5015745;28;20148;-61
2021/03/10 13:22:10;;;;;;;36.30;17.67;;;;;;;;;;4996705;28;20072;-61
2021/03/10 13:24:37;;;;;;;33.92;16.30;;;;;;;;;;5000494;28;20038;-62
2021/03/10 13:27:02;;;;;;;32.97;16.45;;;;;;;;;;4989663;28;20061;-60
2021/03/10 13:29:30;;;;;;;37.10;15.70;;;;;;;;;;4985362;28;20045;-62
2021/03/10 13:31:57;;;;;;;42.83;17.83;;;;;;;;;;4983259;28;20034;-61
2021/03/10 13:34:22;;;;;;;37.70;18.27;;;;;;;;;;4993910;28;20542;-61
2021/03/10 13:36:50;;;;;;;34.80;16.83;;;;;;;;;;4981303;28;20176;-62
2021/03/10 13:39:16;;;;;;;39.83;17.30;;;;;;;;;;4982803;28;20052;-62
2021/03/10 13:41:44;;;;;;;37.83;17.63;;;;;;;;;;4965193;28;20576;-61
2021/03/10 13:44:10;;;;;;;37.58;17.45;;;;;;;;;;4977058;28;20041;-62
2021/03/10 13:46:36;;;;;;;35.63;17.63;;;;;;;;;;4982660;28;20042;-63
2021/03/10 13:49:02;;;;;;;37.22;17.15;;;;;;;;;;4998758;28;20046;-62
2021/03/10 13:51:28;;;;;;;37.58;16.80;;;;;;;;;;4996124;28;20358;-61
2021/03/10 13:53:53;;;;;;;43.38;18.65;;;;;;;;;;4995769;28;20059;-60
2021/03/10 13:56:22;;;;;;;39.60;20.00;;;;;;;;;;4999874;28;20076;-62
2021/03/10 13:58:47;;;;;;;38.50;18.08;;;;;;;;;;4995433;28;20025;-62
2021/03/10 14:01:17;;;;;;;32.40;16.25;;;;;;;;;;4988909;28;20084;-62
2021/03/10 14:03:43;;;;;;;34.45;17.48;;;;;;;;;;4975372;28;20034;-62
2021/03/10 14:06:11;;;;;;;37.42;17.75;;;;;;;;;;4979709;28;20032;-60
2021/03/10 14:08:39;;;;;;;36.45;17.73;;;;;;;;;;5000513;28;20111;-59
2021/03/10 14:11:08;;;;;;;33.53;17.08;;;;;;;;;;4998943;28;20034;-60
2021/03/10 14:13:34;;;;;;;32.38;16.20;;;;;;;;;;4987067;28;20034;-60
2021/03/10 14:15:59;;;;;;;35.60;17.55;;;;;;;;;;4999087;28;20582;-61
2021/03/10 14:18:35;;;;;;;38.70;18.10;;;;;;;;;;4993922;28;22016;-62
2021/03/10 14:21:00;;;;;;;37.13;17.17;;;;;;;;;;4967509;28;20037;-59
2021/03/10 14:23:26;;;;;;;35.63;18.60;;;;;;;;;;4996716;28;20113;-62